Home > Products > Valid Products > TAF

000
FTUS44 KOUN 281720
TAFOKC
TAF
KOKC 281720Z 2818/2918 05010KT P6SM BKN100
     FM290800 12008KT P6SM BKN120=



000
FTUS44 KOUN 281720
TAFLAW
TAF
KLAW 281720Z 2818/2918 02012KT 5SM SHRA BKN050
     FM282100 06011KT P6SM BKN100
     FM290900 10008KT P6SM BKN150=



000
FTUS44 KOUN 281720
TAFSPS
TAF
KSPS 281720Z 2818/2918 04011KT 5SM SHRA BKN050
     FM282100 06011KT P6SM BKN100
     FM290600 11007KT P6SM BKN150=



000
FTUS44 KOUN 281720
TAFHBR
TAF
KHBR 281720Z 2818/2918 05010KT P6SM BKN050
     FM290200 11008KT P6SM BKN050
     FM290900 15010KT P6SM BKN100=



000
FTUS44 KOUN 281720
TAFWWR
TAF
KWWR 281720Z 2818/2918 01007KT P6SM BKN150
     FM290300 10006KT P6SM BKN100
     FM290600 16009KT P6SM BKN050=



000
FTUS44 KOUN 281720
TAFOUN
TAF
KOUN 281720Z 2818/2918 05010KT P6SM BKN100
     FM290800 11008KT P6SM BKN120=



000
FTUS44 KOUN 281720
TAFGAG
TAF
KGAG 281720Z 2818/2918 01007KT P6SM BKN150
     FM290300 10006KT P6SM BKN100
     FM290600 16010KT P6SM BKN050=



000
FTUS44 KOUN 281720
TAFPNC
TAF
KPNC 281720Z 2818/2918 01009KT P6SM SCT150
     FM290500 08007KT P6SM BKN150
     FM291200 12007KT P6SM BKN150=



000
FTUS44 KOUN 281720
TAFPNC
TAF
KPNC 281720Z 2818/2918 01009KT P6SM SCT150
     FM290500 08007KT P6SM BKN150
     FM291200 12007KT P6SM BKN150=



000
FTUS44 KOUN 281720
TAFLAW
TAF
KLAW 281720Z 2818/2918 02012KT 5SM SHRA BKN050
     FM282100 06011KT P6SM BKN100
     FM290900 10008KT P6SM BKN150=



000
FTUS44 KOUN 281720
TAFOKC
TAF
KOKC 281720Z 2818/2918 05010KT P6SM BKN100
     FM290800 12008KT P6SM BKN120=



000
FTUS44 KOUN 281720
TAFSPS
TAF
KSPS 281720Z 2818/2918 04011KT 5SM SHRA BKN050
     FM282100 06011KT P6SM BKN100
     FM290600 11007KT P6SM BKN150=



000
FTUS44 KOUN 281720
TAFWWR
TAF
KWWR 281720Z 2818/2918 01007KT P6SM BKN150
     FM290300 10006KT P6SM BKN100
     FM290600 16009KT P6SM BKN050=



000
FTUS44 KOUN 281720
TAFHBR
TAF
KHBR 281720Z 2818/2918 05010KT P6SM BKN050
     FM290200 11008KT P6SM BKN050
     FM290900 15010KT P6SM BKN100=



000
FTUS44 KOUN 281720
TAFGAG
TAF
KGAG 281720Z 2818/2918 01007KT P6SM BKN150
     FM290300 10006KT P6SM BKN100
     FM290600 16010KT P6SM BKN050=



000
FTUS44 KOUN 281720
TAFOUN
TAF
KOUN 281720Z 2818/2918 05010KT P6SM BKN100
     FM290800 11008KT P6SM BKN120=



000
FTUS44 KOUN 281611 AAA
TAFHBR
TAF AMD
KHBR 281611Z 2816/2912 01011KT 6SM -RA BR BKN050 OVC100
     FM281900 09010KT P6SM BKN050 BKN120
     FM290600 12010KT P6SM BKN050 BKN120 PROB30 2907/2911 4SM TSRA
      OVC040CB=



000
FTUS44 KOUN 281557 AAA
TAFSPS
TAF AMD
KSPS 281557Z 2816/2912 06010KT P6SM -RA BKN050 OVC100
      TEMPO 2816/2819 4SM TSRA OVC050CB
     FM281900 08011KT P6SM BKN050 OVC100
     FM290000 11007KT P6SM SCT150=



000
FTUS44 KOUN 281557 AAA
TAFSPS
TAF AMD
KSPS 281557Z 2816/2912 06010KT P6SM -RA BKN050 OVC100
      TEMPO 2816/2819 4SM TSRA OVC050CB
     FM281900 08011KT P6SM BKN050 OVC100
     FM290000 11007KT P6SM SCT150=



000
FTUS44 KOUN 281120
TAFOUN
TAF
KOUN 281120Z 2812/2912 05010KT P6SM SCT100
     FM290000 08010KT P6SM BKN120=



000
FTUS44 KOUN 281120
TAFPNC
TAF
KPNC 281120Z 2812/2912 04009KT P6SM SCT100
     FM290000 09007KT P6SM SCT100=



000
FTUS44 KOUN 281120
TAFSPS
TAF
KSPS 281120Z 2812/2912 06012KT P6SM VCTS BKN080CB
      TEMPO 2812/2814 4SM TSRA OVC040CB
     FM281700 08011KT P6SM SCT100 BKN250
     FM290000 11007KT P6SM SCT150=



000
FTUS44 KOUN 281120
TAFOKC
TAF
KOKC 281120Z 2812/2912 05010KT P6SM SCT100
     FM290000 08010KT P6SM BKN120=



000
FTUS44 KOUN 281120
TAFOKC
TAF
KOKC 281120Z 2812/2912 05010KT P6SM SCT100
     FM290000 08010KT P6SM BKN120=



000
FTUS44 KOUN 281120
TAFGAG
TAF
KGAG 281120Z 2812/2912 06008KT P6SM VCTS BKN070CB
     FM281700 11010KT P6SM SCT070 BKN250
     FM290600 12007KT P6SM BKN050 OVC100 PROB30 2906/2910 4SM TSRA
      OVC040CB=



000
FTUS44 KOUN 281120
TAFLAW
TAF
KLAW 281120Z 2812/2912 06011KT P6SM VCTS BKN080CB
      TEMPO 2812/2814 4SM TSRA OVC040CB
     FM281400 07012KT P6SM SCT100 BKN250
     FM290000 10008KT P6SM SCT150=



000
FTUS44 KOUN 281120
TAFHBR
TAF
KHBR 281120Z 2812/2912 07011G20KT P6SM VCTS BKN050CB
      TEMPO 2812/2813 3SM TSRA OVC040CB
     FM281700 09010KT P6SM SCT050 BKN120
     FM290600 12010KT P6SM BKN050 BKN120 PROB30 2907/2911 4SM TSRA
      OVC040CB=



000
FTUS44 KOUN 281120
TAFGAG
TAF
KGAG 281120Z 2812/2912 06008KT P6SM VCTS BKN070CB
     FM281700 11010KT P6SM SCT070 BKN250
     FM290600 12007KT P6SM BKN050 OVC100 PROB30 2906/2910 4SM TSRA
      OVC040CB=



000
FTUS44 KOUN 281120
TAFHBR
TAF
KHBR 281120Z 2812/2912 07011G20KT P6SM VCTS BKN050CB
      TEMPO 2812/2813 3SM TSRA OVC040CB
     FM281700 09010KT P6SM SCT050 BKN120
     FM290600 12010KT P6SM BKN050 BKN120 PROB30 2907/2911 4SM TSRA
      OVC040CB=



000
FTUS44 KOUN 281120
TAFSPS
TAF
KSPS 281120Z 2812/2912 06012KT P6SM VCTS BKN080CB
      TEMPO 2812/2814 4SM TSRA OVC040CB
     FM281700 08011KT P6SM SCT100 BKN250
     FM290000 11007KT P6SM SCT150=



000
FTUS44 KOUN 281120
TAFPNC
TAF
KPNC 281120Z 2812/2912 04009KT P6SM SCT100
     FM290000 09007KT P6SM SCT100=



000
FTUS44 KOUN 281120
TAFLAW
TAF
KLAW 281120Z 2812/2912 06011KT P6SM VCTS BKN080CB
      TEMPO 2812/2814 4SM TSRA OVC040CB
     FM281400 07012KT P6SM SCT100 BKN250
     FM290000 10008KT P6SM SCT150=



000
FTUS44 KOUN 281120
TAFWWR
TAF
KWWR 281120Z 2812/2912 06008KT P6SM VCTS BKN070CB
     FM281700 11010KT P6SM SCT070 BKN250
     FM290600 12007KT P6SM BKN050 OVC100 PROB30 2906/2910 4SM TSRA
      OVC040CB=



000
FTUS44 KOUN 281120
TAFOUN
TAF
KOUN 281120Z 2812/2912 05010KT P6SM SCT100
     FM290000 08010KT P6SM BKN120=



000
FTUS44 KOUN 281120
TAFWWR
TAF
KWWR 281120Z 2812/2912 06008KT P6SM VCTS BKN070CB
     FM281700 11010KT P6SM SCT070 BKN250
     FM290600 12007KT P6SM BKN050 OVC100 PROB30 2906/2910 4SM TSRA
      OVC040CB=



000
FTUS44 KOUN 281057 AAA
TAFSPS
TAF AMD
KSPS 281057Z 2811/2906 05012KT P6SM -TSRA BKN080CB
      TEMPO 2811/2813 3SM TSRA BKN040CB
     FM281500 08011KT P6SM SCT100 BKN250=



000
FTUS44 KOUN 281057 AAA
TAFSPS
TAF AMD
KSPS 281057Z 2811/2906 05012KT P6SM -TSRA BKN080CB
      TEMPO 2811/2813 3SM TSRA BKN040CB
     FM281500 08011KT P6SM SCT100 BKN250=



000
FTUS44 KOUN 280520
TAFSPS
TAF
KSPS 280520Z 2806/2906 05012KT P6SM VCTS BKN080CB
     FM281500 08011KT P6SM SCT100 BKN250=



000
FTUS44 KOUN 280520
TAFPNC
TAF
KPNC 280520Z 2806/2906 04008KT P6SM SCT250=



000
FTUS44 KOUN 280520
TAFPNC
TAF
KPNC 280520Z 2806/2906 04008KT P6SM SCT250=



000
FTUS44 KOUN 280520
TAFWWR
TAF
KWWR 280520Z 2806/2906 06008KT P6SM BKN250
     FM281700 12010KT P6SM SCT250=



000
FTUS44 KOUN 280520
TAFWWR
TAF
KWWR 280520Z 2806/2906 06008KT P6SM BKN250
     FM281700 12010KT P6SM SCT250=



000
FTUS44 KOUN 280520
TAFLAW
TAF
KLAW 280520Z 2806/2906 04011KT P6SM VCTS BKN080CB
     FM281400 07010KT P6SM SCT100 BKN250
     FM282000 10010KT P6SM SCT250=



000
FTUS44 KOUN 280520
TAFOKC
TAF
KOKC 280520Z 2806/2906 04010KT P6SM SCT100=



000
FTUS44 KOUN 280520
TAFOKC
TAF
KOKC 280520Z 2806/2906 04010KT P6SM SCT100=



000
FTUS44 KOUN 280520
TAFOUN
TAF
KOUN 280520Z 2806/2906 04010KT P6SM SCT100=



000
FTUS44 KOUN 280520
TAFOUN
TAF
KOUN 280520Z 2806/2906 04010KT P6SM SCT100=



000
FTUS44 KOUN 280520
TAFGAG
TAF
KGAG 280520Z 2806/2906 06008KT P6SM BKN250
     FM281700 12010KT P6SM SCT250=



000
FTUS44 KOUN 280520
TAFHBR
TAF
KHBR 280520Z 2806/2906 06015KT P6SM VCTS BKN080CB
     FM281200 08010KT P6SM SCT100 BKN250
     FM281900 11011KT P6SM SCT250=



000
FTUS44 KOUN 280520
TAFGAG
TAF
KGAG 280520Z 2806/2906 06008KT P6SM BKN250
     FM281700 12010KT P6SM SCT250=



000
FTUS44 KOUN 280520
TAFSPS
TAF
KSPS 280520Z 2806/2906 05012KT P6SM VCTS BKN080CB
     FM281500 08011KT P6SM SCT100 BKN250=



000
FTUS44 KOUN 280520
TAFLAW
TAF
KLAW 280520Z 2806/2906 04011KT P6SM VCTS BKN080CB
     FM281400 07010KT P6SM SCT100 BKN250
     FM282000 10010KT P6SM SCT250=



000
FTUS44 KOUN 280520
TAFHBR
TAF
KHBR 280520Z 2806/2906 06015KT P6SM VCTS BKN080CB
     FM281200 08010KT P6SM SCT100 BKN250
     FM281900 11011KT P6SM SCT250=



000
FTUS44 KOUN 280315 AAA
TAFOKC
TAF AMD
KOKC 280315Z 2803/2824 04010KT P6SM SCT250=



000
FTUS44 KOUN 280315 AAA
TAFOKC
TAF AMD
KOKC 280315Z 2803/2824 04010KT P6SM SCT250=



000
FTUS44 KOUN 280314 AAA
TAFOUN
TAF AMD
KOUN 280314Z 2803/2824 04009KT P6SM SCT250=



000
FTUS44 KOUN 280314 AAA
TAFOUN
TAF AMD
KOUN 280314Z 2803/2824 04009KT P6SM SCT250=



000
FTUS44 KOUN 272335
TAFOUN
TAF
KOUN 272335Z 2800/2824 05014G21KT P6SM SCT060 BKN250
     FM280600 06011KT P6SM SCT250=



000
FTUS44 KOUN 272335
TAFHBR
TAF
KHBR 272335Z 2800/2824 06016G24KT P6SM SCT080 SCT250
     FM280500 06013KT P6SM BKN250
     FM281700 10011KT P6SM SCT250=



000
FTUS44 KOUN 272335
TAFWWR
TAF
KWWR 272335Z 2800/2824 05014G21KT P6SM SCT250
     FM280400 06011KT P6SM BKN250
     FM281700 10010KT P6SM SCT250=



000
FTUS44 KOUN 272335
TAFPNC
TAF
KPNC 272335Z 2800/2824 06008KT P6SM SCT250=



000
FTUS44 KOUN 272335
TAFSPS
TAF
KSPS 272335Z 2800/2824 10006KT P6SM SCT100
     FM280400 04014KT P6SM BKN250
     FM281800 09014KT P6SM SCT250=



000
FTUS44 KOUN 272335
TAFOUN
TAF
KOUN 272335Z 2800/2824 05014G21KT P6SM SCT060 BKN250
     FM280600 06011KT P6SM SCT250=



000
FTUS44 KOUN 272335
TAFWWR
TAF
KWWR 272335Z 2800/2824 05014G21KT P6SM SCT250
     FM280400 06011KT P6SM BKN250
     FM281700 10010KT P6SM SCT250=



000
FTUS44 KOUN 272335
TAFGAG
TAF
KGAG 272335Z 2800/2824 05014G21KT P6SM SCT250
     FM280400 06011KT P6SM BKN250
     FM281700 10010KT P6SM SCT250=



000
FTUS44 KOUN 272335
TAFLAW
TAF
KLAW 272335Z 2800/2824 06014G24KT P6SM SCT080
      TEMPO 2800/2802 BKN080
     FM280700 04013KT P6SM BKN250
     FM281800 08014KT P6SM SCT250=



000
FTUS44 KOUN 272335
TAFOKC
TAF
KOKC 272335Z 2800/2824 05014G21KT P6SM SCT060 BKN250
     FM280600 06011KT P6SM SCT250=



000
FTUS44 KOUN 272335
TAFGAG
TAF
KGAG 272335Z 2800/2824 05014G21KT P6SM SCT250
     FM280400 06011KT P6SM BKN250
     FM281700 10010KT P6SM SCT250=



000
FTUS44 KOUN 272335
TAFOKC
TAF
KOKC 272335Z 2800/2824 05014G21KT P6SM SCT060 BKN250
     FM280600 06011KT P6SM SCT250=



000
FTUS44 KOUN 272335
TAFPNC
TAF
KPNC 272335Z 2800/2824 06008KT P6SM SCT250=



000
FTUS44 KOUN 272335
TAFHBR
TAF
KHBR 272335Z 2800/2824 06016G24KT P6SM SCT080 SCT250
     FM280500 06013KT P6SM BKN250
     FM281700 10011KT P6SM SCT250=



000
FTUS44 KOUN 272335
TAFSPS
TAF
KSPS 272335Z 2800/2824 10006KT P6SM SCT100
     FM280400 04014KT P6SM BKN250
     FM281800 09014KT P6SM SCT250=



000
FTUS44 KOUN 272335
TAFLAW
TAF
KLAW 272335Z 2800/2824 06014G24KT P6SM SCT080
      TEMPO 2800/2802 BKN080
     FM280700 04013KT P6SM BKN250
     FM281800 08014KT P6SM SCT250=



000
FTUS44 KOUN 271743
TAFGAG
TAF
KGAG 271743Z 2718/2818 05018G26KT P6SM SCT060 BKN120
     FM280400 03008KT P6SM SCT040 BKN100 PROB30 2804/2810 4SM TSRA
      OVC040CB
     FM281500 11010KT P6SM BKN250=



000
FTUS44 KOUN 271743
TAFLAW
TAF
KLAW 271743Z 2718/2818 03013KT P6SM SCT250
     FM272300 03012KT P6SM SCT070 BKN150
     FM280600 03010KT P6SM SCT040 BKN100 PROB30 2806/2812 4SM TSRA
      OVC040CB
     FM281500 06018KT P6SM BKN250=



000
FTUS44 KOUN 271743
TAFWWR
TAF
KWWR 271743Z 2718/2818 05013G23KT P6SM SCT060 BKN120
     FM280400 03008KT P6SM SCT040 BKN100 PROB30 2804/2808 4SM TSRA
      OVC040CB
     FM281500 11010KT P6SM BKN250=



000
FTUS44 KOUN 271743
TAFSPS
TAF
KSPS 271743Z 2718/2818 22012KT P6SM SCT250
     FM272200 04011KT P6SM SCT060 BKN120
     FM280900 03008KT P6SM OVC100 PROB30 2809/2812 P6SM -TSRA
      BKN050CB
     FM281200 02008KT P6SM BKN100 PROB30 2812/2815 P6SM -SHRA
      BKN100=



000
FTUS44 KOUN 271743
TAFPNC
TAF
KPNC 271743Z 2718/2818 06012G18KT P6SM SCT050 BKN120
     FM280300 04007KT P6SM BKN250=



000
FTUS44 KOUN 271743
TAFPNC
TAF
KPNC 271743Z 2718/2818 06012G18KT P6SM SCT050 BKN120
     FM280300 04007KT P6SM BKN250=



000
FTUS44 KOUN 271743
TAFHBR
TAF
KHBR 271743Z 2718/2818 05012G17KT P6SM SCT060 BKN150
     FM280600 04010KT P6SM SCT040 BKN100 PROB30 2806/2810 4SM TSRA
      OVC040CB
     FM281500 08016KT P6SM BKN250=



000
FTUS44 KOUN 271743
TAFGAG
TAF
KGAG 271743Z 2718/2818 05018G26KT P6SM SCT060 BKN120
     FM280400 03008KT P6SM SCT040 BKN100 PROB30 2804/2810 4SM TSRA
      OVC040CB
     FM281500 11010KT P6SM BKN250=



000
FTUS44 KOUN 271743
TAFOUN
TAF
KOUN 271743Z 2718/2818 03011KT P6SM SCT060 BKN150
     FM280600 04010KT P6SM SCT040 BKN100 PROB30 2806/2810 4SM TSRA
      OVC040CB
     FM281500 07010KT P6SM BKN250=



000
FTUS44 KOUN 271743
TAFHBR
TAF
KHBR 271743Z 2718/2818 05012G17KT P6SM SCT060 BKN150
     FM280600 04010KT P6SM SCT040 BKN100 PROB30 2806/2810 4SM TSRA
      OVC040CB
     FM281500 08016KT P6SM BKN250=



000
FTUS44 KOUN 271743
TAFWWR
TAF
KWWR 271743Z 2718/2818 05013G23KT P6SM SCT060 BKN120
     FM280400 03008KT P6SM SCT040 BKN100 PROB30 2804/2808 4SM TSRA
      OVC040CB
     FM281500 11010KT P6SM BKN250=



000
FTUS44 KOUN 271743
TAFOKC
TAF
KOKC 271743Z 2718/2818 03011KT P6SM SCT060 BKN150
     FM280600 04010KT P6SM SCT040 BKN100 PROB30 2806/2810 4SM TSRA
      OVC040CB
     FM281500 07010KT P6SM BKN250=



000
FTUS44 KOUN 271743
TAFLAW
TAF
KLAW 271743Z 2718/2818 03013KT P6SM SCT250
     FM272300 03012KT P6SM SCT070 BKN150
     FM280600 03010KT P6SM SCT040 BKN100 PROB30 2806/2812 4SM TSRA
      OVC040CB
     FM281500 06018KT P6SM BKN250=



000
FTUS44 KOUN 271743
TAFSPS
TAF
KSPS 271743Z 2718/2818 22012KT P6SM SCT250
     FM272200 04011KT P6SM SCT060 BKN120
     FM280900 03008KT P6SM OVC100 PROB30 2809/2812 P6SM -TSRA
      BKN050CB
     FM281200 02008KT P6SM BKN100 PROB30 2812/2815 P6SM -SHRA
      BKN100=



000
FTUS44 KOUN 271743
TAFOUN
TAF
KOUN 271743Z 2718/2818 03011KT P6SM SCT060 BKN150
     FM280600 04010KT P6SM SCT040 BKN100 PROB30 2806/2810 4SM TSRA
      OVC040CB
     FM281500 07010KT P6SM BKN250=



000
FTUS44 KOUN 271743
TAFOKC
TAF
KOKC 271743Z 2718/2818 03011KT P6SM SCT060 BKN150
     FM280600 04010KT P6SM SCT040 BKN100 PROB30 2806/2810 4SM TSRA
      OVC040CB
     FM281500 07010KT P6SM BKN250=



000
FTUS44 KOUN 271130
TAFLAW
TAF
KLAW 271130Z 2712/2812 17008KT P6SM SCT250
     FM272300 03012KT P6SM SCT070 BKN150 PROB30 2800/2806 TSRA
      BKN050CB
     FM280600 03010KT P6SM SCT040 BKN100 PROB30 2806/2810 4SM TSRA
      OVC040CB=



000
FTUS44 KOUN 271130
TAFOKC
TAF
KOKC 271130Z 2712/2812 18010KT P6SM SCT150
     FM272000 03011KT P6SM SCT060 BKN150 PROB30 2800/2806 TSRA
      BKN050CB
     FM280600 04010KT P6SM SCT040 BKN100 PROB30 2806/2810 4SM TSRA
      OVC040CB=



000
FTUS44 KOUN 271130
TAFPNC
TAF
KPNC 271130Z 2712/2812 VRB05KT P6SM BKN120
     FM271400 04012KT P6SM SCT050 BKN120 PROB30 2721/2801 4SM TSRA
      OVC040CB=



000
FTUS44 KOUN 271130
TAFOUN
TAF
KOUN 271130Z 2712/2812 18010KT P6SM SCT150
     FM272100 03011KT P6SM SCT060 BKN150 PROB30 2800/2806 TSRA
      BKN050CB
     FM280600 04010KT P6SM SCT040 BKN100 PROB30 2806/2810 4SM TSRA
      OVC040CB=



000
FTUS44 KOUN 271130
TAFWWR
TAF
KWWR 271130Z 2712/2812 VRB05KT P6SM BKN120
     FM271400 05013KT P6SM SCT060 BKN120 PROB30 2723/2803 TSRA
      BKN040CB
     FM280400 03008KT P6SM SCT040 BKN100 PROB30 2804/2808 4SM TSRA
      OVC040CB=



000
FTUS44 KOUN 271130
TAFHBR
TAF
KHBR 271130Z 2712/2812 24010KT P6SM SCT250
     FM271800 05012KT P6SM SCT060 BKN150 PROB30 2800/2806 TSRA
      BKN050CB
     FM280600 04010KT P6SM SCT040 BKN100 PROB30 2806/2810 4SM TSRA
      OVC040CB=



000
FTUS44 KOUN 271130
TAFSPS
TAF
KSPS 271130Z 2712/2812 16010KT P6SM FEW250
     FM271400 22012KT P6SM SCT250
     FM280200 04011KT P6SM SCT060 BKN120=



000
FTUS44 KOUN 271130
TAFGAG
TAF
KGAG 271130Z 2712/2812 VRB05KT P6SM BKN120
     FM271400 05013KT P6SM SCT060 BKN120 PROB30 2723/2803 TSRA
      BKN040CB
     FM280400 03008KT P6SM SCT040 BKN100 PROB30 2804/2808 4SM TSRA
      OVC040CB=



000
FTUS44 KOUN 271130
TAFWWR
TAF
KWWR 271130Z 2712/2812 VRB05KT P6SM BKN120
     FM271400 05013KT P6SM SCT060 BKN120 PROB30 2723/2803 TSRA
      BKN040CB
     FM280400 03008KT P6SM SCT040 BKN100 PROB30 2804/2808 4SM TSRA
      OVC040CB=



000
FTUS44 KOUN 271130
TAFOKC
TAF
KOKC 271130Z 2712/2812 18010KT P6SM SCT150
     FM272000 03011KT P6SM SCT060 BKN150 PROB30 2800/2806 TSRA
      BKN050CB
     FM280600 04010KT P6SM SCT040 BKN100 PROB30 2806/2810 4SM TSRA
      OVC040CB=



000
FTUS44 KOUN 271130
TAFSPS
TAF
KSPS 271130Z 2712/2812 16010KT P6SM FEW250
     FM271400 22012KT P6SM SCT250
     FM280200 04011KT P6SM SCT060 BKN120=



000
FTUS44 KOUN 271130
TAFPNC
TAF
KPNC 271130Z 2712/2812 VRB05KT P6SM BKN120
     FM271400 04012KT P6SM SCT050 BKN120 PROB30 2721/2801 4SM TSRA
      OVC040CB=



000
FTUS44 KOUN 271130
TAFGAG
TAF
KGAG 271130Z 2712/2812 VRB05KT P6SM BKN120
     FM271400 05013KT P6SM SCT060 BKN120 PROB30 2723/2803 TSRA
      BKN040CB
     FM280400 03008KT P6SM SCT040 BKN100 PROB30 2804/2808 4SM TSRA
      OVC040CB=



000
FTUS44 KOUN 271130
TAFLAW
TAF
KLAW 271130Z 2712/2812 17008KT P6SM SCT250
     FM272300 03012KT P6SM SCT070 BKN150 PROB30 2800/2806 TSRA
      BKN050CB
     FM280600 03010KT P6SM SCT040 BKN100 PROB30 2806/2810 4SM TSRA
      OVC040CB=



000
FTUS44 KOUN 271130
TAFHBR
TAF
KHBR 271130Z 2712/2812 24010KT P6SM SCT250
     FM271800 05012KT P6SM SCT060 BKN150 PROB30 2800/2806 TSRA
      BKN050CB
     FM280600 04010KT P6SM SCT040 BKN100 PROB30 2806/2810 4SM TSRA
      OVC040CB=



000
FTUS44 KOUN 271130
TAFOUN
TAF
KOUN 271130Z 2712/2812 18010KT P6SM SCT150
     FM272100 03011KT P6SM SCT060 BKN150 PROB30 2800/2806 TSRA
      BKN050CB
     FM280600 04010KT P6SM SCT040 BKN100 PROB30 2806/2810 4SM TSRA
      OVC040CB=



000
FTUS44 KOUN 270527
TAFGAG
TAF
KGAG 270527Z 2706/2806 18010KT P6SM SCT250
     FM271400 03013KT P6SM BKN250 PROB30 2721/2803 TSRA BKN040CB=



000
FTUS44 KOUN 270527
TAFHBR
TAF
KHBR 270527Z 2706/2806 18010KT P6SM SCT250
     FM272000 03013G19KT P6SM SCT080 BKN250 PROB30 2800/2806 TSRA
      BKN050CB=



000
FTUS44 KOUN 270527
TAFSPS
TAF
KSPS 270527Z 2706/2806 16010KT P6SM FEW250
     FM271400 22012KT P6SM SCT250
     FM280000 04011KT P6SM BKN250=



000
FTUS44 KOUN 270527
TAFOUN
TAF
KOUN 270527Z 2706/2806 18010KT P6SM SCT250
     FM272100 03011KT P6SM SCT080 BKN250 PROB30 2800/2806 TSRA
      BKN050CB=



000
FTUS44 KOUN 270527
TAFWWR
TAF
KWWR 270527Z 2706/2806 18010KT P6SM SCT250
     FM271400 03013KT P6SM BKN250 PROB30 2721/2803 TSRA BKN040CB=



000
FTUS44 KOUN 270527
TAFLAW
TAF
KLAW 270527Z 2706/2806 17008KT P6SM SCT250
     FM272200 03012KT P6SM SCT080 BKN250 PROB30 2800/2806 TSRA
      BKN050CB=



000
FTUS44 KOUN 270527
TAFOKC
TAF
KOKC 270527Z 2706/2806 18010KT P6SM SCT250
     FM272100 03011KT P6SM SCT080 BKN250 PROB30 2800/2806 TSRA
      BKN050CB=



000
FTUS44 KOUN 270527
TAFPNC
TAF
KPNC 270527Z 2706/2806 18010KT P6SM SCT250
     FM271400 04012KT P6SM BKN250=



000
FTUS44 KOUN 270527
TAFHBR
TAF
KHBR 270527Z 2706/2806 18010KT P6SM SCT250
     FM272000 03013G19KT P6SM SCT080 BKN250 PROB30 2800/2806 TSRA
      BKN050CB=



000
FTUS44 KOUN 270527
TAFGAG
TAF
KGAG 270527Z 2706/2806 18010KT P6SM SCT250
     FM271400 03013KT P6SM BKN250 PROB30 2721/2803 TSRA BKN040CB=



000
FTUS44 KOUN 270527
TAFOUN
TAF
KOUN 270527Z 2706/2806 18010KT P6SM SCT250
     FM272100 03011KT P6SM SCT080 BKN250 PROB30 2800/2806 TSRA
      BKN050CB=



000
FTUS44 KOUN 270527
TAFWWR
TAF
KWWR 270527Z 2706/2806 18010KT P6SM SCT250
     FM271400 03013KT P6SM BKN250 PROB30 2721/2803 TSRA BKN040CB=



000
FTUS44 KOUN 270527
TAFSPS
TAF
KSPS 270527Z 2706/2806 16010KT P6SM FEW250
     FM271400 22012KT P6SM SCT250
     FM280000 04011KT P6SM BKN250=



000
FTUS44 KOUN 270527
TAFLAW
TAF
KLAW 270527Z 2706/2806 17008KT P6SM SCT250
     FM272200 03012KT P6SM SCT080 BKN250 PROB30 2800/2806 TSRA
      BKN050CB=



000
FTUS44 KOUN 270527
TAFOKC
TAF
KOKC 270527Z 2706/2806 18010KT P6SM SCT250
     FM272100 03011KT P6SM SCT080 BKN250 PROB30 2800/2806 TSRA
      BKN050CB=



000
FTUS44 KOUN 270527
TAFPNC
TAF
KPNC 270527Z 2706/2806 18010KT P6SM SCT250
     FM271400 04012KT P6SM BKN250=



000
FTUS44 KOUN 262327
TAFGAG
TAF
KGAG 262327Z 2700/2724 18013KT P6SM SCT250
     FM271000 02011KT P6SM SCT060 BKN250=



000
FTUS44 KOUN 262327
TAFOKC
TAF
KOKC 262327Z 2700/2724 18011KT P6SM SCT250
     FM271800 02010KT P6SM SCT080 BKN250=



000
FTUS44 KOUN 262327
TAFWWR
TAF
KWWR 262327Z 2700/2724 18013KT P6SM SCT250
     FM271000 02012KT P6SM SCT060 BKN250=



000
FTUS44 KOUN 262327
TAFOUN
TAF
KOUN 262327Z 2700/2724 18010KT P6SM SCT250
     FM271800 02010KT P6SM SCT080 BKN250=



000
FTUS44 KOUN 262327
TAFSPS
TAF
KSPS 262327Z 2700/2724 17010KT P6SM FEW250
     FM271400 22013KT P6SM SCT250
     FM272200 36010KT P6SM SCT250=



000
FTUS44 KOUN 262327
TAFHBR
TAF
KHBR 262327Z 2700/2724 18012KT P6SM SCT250
     FM271700 03013KT P6SM SCT250=



000
FTUS44 KOUN 262327
TAFPNC
TAF
KPNC 262327Z 2700/2724 18010KT P6SM SCT250
     FM271100 03012KT P6SM SCT060 BKN250=



000
FTUS44 KOUN 262327
TAFLAW
TAF
KLAW 262327Z 2700/2724 16008KT P6SM FEW250
     FM272000 03013KT P6SM SCT250=



000
FTUS44 KOUN 262327
TAFPNC
TAF
KPNC 262327Z 2700/2724 18010KT P6SM SCT250
     FM271100 03012KT P6SM SCT060 BKN250=



000
FTUS44 KOUN 262327
TAFWWR
TAF
KWWR 262327Z 2700/2724 18013KT P6SM SCT250
     FM271000 02012KT P6SM SCT060 BKN250=



000
FTUS44 KOUN 262327
TAFOKC
TAF
KOKC 262327Z 2700/2724 18011KT P6SM SCT250
     FM271800 02010KT P6SM SCT080 BKN250=



000
FTUS44 KOUN 262327
TAFSPS
TAF
KSPS 262327Z 2700/2724 17010KT P6SM FEW250
     FM271400 22013KT P6SM SCT250
     FM272200 36010KT P6SM SCT250=



000
FTUS44 KOUN 262327
TAFGAG
TAF
KGAG 262327Z 2700/2724 18013KT P6SM SCT250
     FM271000 02011KT P6SM SCT060 BKN250=



000
FTUS44 KOUN 262327
TAFHBR
TAF
KHBR 262327Z 2700/2724 18012KT P6SM SCT250
     FM271700 03013KT P6SM SCT250=



000
FTUS44 KOUN 262327
TAFOUN
TAF
KOUN 262327Z 2700/2724 18010KT P6SM SCT250
     FM271800 02010KT P6SM SCT080 BKN250=



000
FTUS44 KOUN 262327
TAFLAW
TAF
KLAW 262327Z 2700/2724 16008KT P6SM FEW250
     FM272000 03013KT P6SM SCT250=



000
FTUS44 KOUN 261735
TAFSPS
TAF
KSPS 261735Z 2618/2718 21014G22KT P6SM SKC
     FM270000 17011KT P6SM FEW250
     FM271500 22013KT P6SM SKC=



000
FTUS44 KOUN 261735
TAFPNC
TAF
KPNC 261735Z 2618/2718 20013G20KT P6SM BKN250
     FM270000 17010KT P6SM SCT060 BKN250
     FM271500 02010KT P6SM SCT250=



000
FTUS44 KOUN 261735
TAFOKC
TAF
KOKC 261735Z 2618/2718 20015G23KT P6SM SCT250
     FM270000 18010KT P6SM BKN250
     FM271500 20012KT P6SM SCT250=



000
FTUS44 KOUN 261735
TAFWWR
TAF
KWWR 261735Z 2618/2718 22015G23KT P6SM BKN250
     FM270000 17013KT P6SM SCT070 BKN250
     FM270900 30007KT P6SM BKN250
     FM271500 02010KT P6SM SCT250=



000
FTUS44 KOUN 261735
TAFHBR
TAF
KHBR 261735Z 2618/2718 22017G25KT P6SM SCT250
     FM270000 17013KT P6SM SCT250
     FM271500 22011KT P6SM SKC=



000
FTUS44 KOUN 261735
TAFGAG
TAF
KGAG 261735Z 2618/2718 22015G23KT P6SM BKN250
     FM270000 17013KT P6SM SCT070 BKN250
     FM270900 30007KT P6SM BKN250
     FM271500 02010KT P6SM SCT250=



000
FTUS44 KOUN 261735
TAFLAW
TAF
KLAW 261735Z 2618/2718 21013G21KT P6SM SKC
     FM270000 16010KT P6SM FEW250
     FM271500 22013KT P6SM SKC=



000
FTUS44 KOUN 261735
TAFOUN
TAF
KOUN 261735Z 2618/2718 20015G23KT P6SM SCT250
     FM270000 18010KT P6SM BKN250
     FM271500 22011KT P6SM SCT250=



000
FTUS44 KOUN 261735
TAFPNC
TAF
KPNC 261735Z 2618/2718 20013G20KT P6SM BKN250
     FM270000 17010KT P6SM SCT060 BKN250
     FM271500 02010KT P6SM SCT250=



000
FTUS44 KOUN 261735
TAFOKC
TAF
KOKC 261735Z 2618/2718 20015G23KT P6SM SCT250
     FM270000 18010KT P6SM BKN250
     FM271500 20012KT P6SM SCT250=



000
FTUS44 KOUN 261735
TAFSPS
TAF
KSPS 261735Z 2618/2718 21014G22KT P6SM SKC
     FM270000 17011KT P6SM FEW250
     FM271500 22013KT P6SM SKC=



000
FTUS44 KOUN 261735
TAFHBR
TAF
KHBR 261735Z 2618/2718 22017G25KT P6SM SCT250
     FM270000 17013KT P6SM SCT250
     FM271500 22011KT P6SM SKC=



000
FTUS44 KOUN 261735
TAFOUN
TAF
KOUN 261735Z 2618/2718 20015G23KT P6SM SCT250
     FM270000 18010KT P6SM BKN250
     FM271500 22011KT P6SM SCT250=



000
FTUS44 KOUN 261735
TAFLAW
TAF
KLAW 261735Z 2618/2718 21013G21KT P6SM SKC
     FM270000 16010KT P6SM FEW250
     FM271500 22013KT P6SM SKC=



000
FTUS44 KOUN 261735
TAFWWR
TAF
KWWR 261735Z 2618/2718 22015G23KT P6SM BKN250
     FM270000 17013KT P6SM SCT070 BKN250
     FM270900 30007KT P6SM BKN250
     FM271500 02010KT P6SM SCT250=



000
FTUS44 KOUN 261735
TAFGAG
TAF
KGAG 261735Z 2618/2718 22015G23KT P6SM BKN250
     FM270000 17013KT P6SM SCT070 BKN250
     FM270900 30007KT P6SM BKN250
     FM271500 02010KT P6SM SCT250=



000
FTUS44 KOUN 261543 AAA
TAFGAG
TAF AMD
KGAG 261543Z 2616/2712 22015G23KT P6SM BKN250
     FM270000 17013KT P6SM SCT070 BKN250=



000
FTUS44 KOUN 261543 AAA
TAFGAG
TAF AMD
KGAG 261543Z 2616/2712 22015G23KT P6SM BKN250
     FM270000 17013KT P6SM SCT070 BKN250=



000
FTUS44 KOUN 261543 AAA
TAFWWR
TAF AMD
KWWR 261543Z 2616/2712 22015G23KT P6SM BKN250
     FM270000 17013KT P6SM SCT070 BKN250=



000
FTUS44 KOUN 261543 AAA
TAFWWR
TAF AMD
KWWR 261543Z 2616/2712 22015G23KT P6SM BKN250
     FM270000 17013KT P6SM SCT070 BKN250=



000
FTUS44 KOUN 261543 AAA
TAFHBR
TAF AMD
KHBR 261543Z 2616/2712 22017G25KT P6SM SCT250
     FM270000 17013KT P6SM SCT250=



000
FTUS44 KOUN 261543 AAA
TAFHBR
TAF AMD
KHBR 261543Z 2616/2712 22017G25KT P6SM SCT250
     FM270000 17013KT P6SM SCT250=



000
FTUS44 KOUN 261120
TAFWWR
TAF
KWWR 261120Z 2612/2712 20015G23KT P6SM BKN250
     FM270000 17013KT P6SM SCT070 BKN250=



000
FTUS44 KOUN 261120
TAFOUN
TAF
KOUN 261120Z 2612/2712 18010KT P6SM SCT250
     FM261500 20015G23KT P6SM SCT250
     FM270000 18010KT P6SM BKN250=



000
FTUS44 KOUN 261120
TAFGAG
TAF
KGAG 261120Z 2612/2712 20015G23KT P6SM BKN250
     FM270000 17013KT P6SM SCT070 BKN250=



000
FTUS44 KOUN 261120
TAFPNC
TAF
KPNC 261120Z 2612/2712 19012KT P6SM BKN250
     FM261500 20013G20KT P6SM BKN250
     FM270000 17010KT P6SM SCT060 BKN250=



000
FTUS44 KOUN 261120
TAFOKC
TAF
KOKC 261120Z 2612/2712 18010KT P6SM SCT250
     FM261500 20015G23KT P6SM SCT250
     FM270000 18010KT P6SM BKN250=



000
FTUS44 KOUN 261120
TAFGAG
TAF
KGAG 261120Z 2612/2712 20015G23KT P6SM BKN250
     FM270000 17013KT P6SM SCT070 BKN250=



000
FTUS44 KOUN 261120
TAFOKC
TAF
KOKC 261120Z 2612/2712 18010KT P6SM SCT250
     FM261500 20015G23KT P6SM SCT250
     FM270000 18010KT P6SM BKN250=



000
FTUS44 KOUN 261120
TAFLAW
TAF
KLAW 261120Z 2612/2712 18009KT P6SM SKC
     FM261500 20013G21KT P6SM SKC
     FM270000 16010KT P6SM FEW250=



000
FTUS44 KOUN 261120
TAFOUN
TAF
KOUN 261120Z 2612/2712 18010KT P6SM SCT250
     FM261500 20015G23KT P6SM SCT250
     FM270000 18010KT P6SM BKN250=



000
FTUS44 KOUN 261120
TAFSPS
TAF
KSPS 261120Z 2612/2712 19010KT P6SM SKC
     FM261500 21014G22KT P6SM SKC
     FM270000 17011KT P6SM FEW250=



000
FTUS44 KOUN 261120
TAFHBR
TAF
KHBR 261120Z 2612/2712 20017G25KT P6SM SCT250
     FM270000 17013KT P6SM SCT250=



000
FTUS44 KOUN 261120
TAFPNC
TAF
KPNC 261120Z 2612/2712 19012KT P6SM BKN250
     FM261500 20013G20KT P6SM BKN250
     FM270000 17010KT P6SM SCT060 BKN250=



000
FTUS44 KOUN 261120
TAFHBR
TAF
KHBR 261120Z 2612/2712 20017G25KT P6SM SCT250
     FM270000 17013KT P6SM SCT250=



000
FTUS44 KOUN 261120
TAFLAW
TAF
KLAW 261120Z 2612/2712 18009KT P6SM SKC
     FM261500 20013G21KT P6SM SKC
     FM270000 16010KT P6SM FEW250=



000
FTUS44 KOUN 261120
TAFSPS
TAF
KSPS 261120Z 2612/2712 19010KT P6SM SKC
     FM261500 21014G22KT P6SM SKC
     FM270000 17011KT P6SM FEW250=



000
FTUS44 KOUN 261120
TAFWWR
TAF
KWWR 261120Z 2612/2712 20015G23KT P6SM BKN250
     FM270000 17013KT P6SM SCT070 BKN250=



000
FTUS44 KOUN 260520
TAFOKC
TAF
KOKC 260520Z 2606/2706 18012KT P6SM SKC
     FM261500 20015G23KT P6SM SKC
     FM270000 18012KT P6SM SCT250=



000
FTUS44 KOUN 260520
TAFGAG
TAF
KGAG 260520Z 2606/2706 20015G23KT P6SM SCT250
     FM270000 17011KT P6SM BKN250=



000
FTUS44 KOUN 260520
TAFSPS
TAF
KSPS 260520Z 2606/2706 16010KT P6SM SKC
     FM261500 21013G20KT P6SM SKC
     FM270000 17011KT P6SM FEW250=



000
FTUS44 KOUN 260520
TAFPNC
TAF
KPNC 260520Z 2606/2706 17012KT P6SM FEW250
     FM261500 20013G20KT P6SM FEW250
     FM270000 17012KT P6SM SCT250=



000
FTUS44 KOUN 260520
TAFWWR
TAF
KWWR 260520Z 2606/2706 20015G23KT P6SM SCT250
     FM270000 17012KT P6SM BKN250=



000
FTUS44 KOUN 260520
TAFOUN
TAF
KOUN 260520Z 2606/2706 17012KT P6SM SKC
     FM261500 20014G22KT P6SM SKC
     FM270000 17011KT P6SM SCT250=



000
FTUS44 KOUN 260520
TAFHBR
TAF
KHBR 260520Z 2606/2706 18014KT P6SM SKC
     FM261400 21016G24KT P6SM SKC
     FM270000 18012KT P6SM SCT250=



000
FTUS44 KOUN 260520
TAFOKC
TAF
KOKC 260520Z 2606/2706 18012KT P6SM SKC
     FM261500 20015G23KT P6SM SKC
     FM270000 18012KT P6SM SCT250=



000
FTUS44 KOUN 260520
TAFWWR
TAF
KWWR 260520Z 2606/2706 20015G23KT P6SM SCT250
     FM270000 17012KT P6SM BKN250=



000
FTUS44 KOUN 260520
TAFGAG
TAF
KGAG 260520Z 2606/2706 20015G23KT P6SM SCT250
     FM270000 17011KT P6SM BKN250=



000
FTUS44 KOUN 260520
TAFOUN
TAF
KOUN 260520Z 2606/2706 17012KT P6SM SKC
     FM261500 20014G22KT P6SM SKC
     FM270000 17011KT P6SM SCT250=



000
FTUS44 KOUN 260520
TAFPNC
TAF
KPNC 260520Z 2606/2706 17012KT P6SM FEW250
     FM261500 20013G20KT P6SM FEW250
     FM270000 17012KT P6SM SCT250=



000
FTUS44 KOUN 260520
TAFLAW
TAF
KLAW 260520Z 2606/2706 16010KT P6SM SKC
     FM261500 20013G20KT P6SM SKC
     FM270000 16010KT P6SM FEW250=



000
FTUS44 KOUN 252327
TAFHBR
TAF
KHBR 252327Z 2600/2624 20017G26KT P6SM SKC=



000
FTUS44 KOUN 252327
TAFGAG
TAF
KGAG 252327Z 2600/2624 19017G28KT P6SM FEW200=



000
FTUS44 KOUN 252327
TAFWWR
TAF
KWWR 252327Z 2600/2624 19017G28KT P6SM FEW200=



000
FTUS44 KOUN 252327
TAFOKC
TAF
KOKC 252327Z 2600/2624 18011KT P6SM SKC
     FM261500 20015G23KT P6SM SKC=



000
FTUS44 KOUN 252327
TAFPNC
TAF
KPNC 252327Z 2600/2624 17011KT P6SM FEW200
     FM261500 20013G20KT P6SM FEW200=



000
FTUS44 KOUN 252327
TAFOUN
TAF
KOUN 252327Z 2600/2624 17011KT P6SM SKC
     FM261500 20014G22KT P6SM SKC=



000
FTUS44 KOUN 252327
TAFSPS
TAF
KSPS 252327Z 2600/2624 17012KT P6SM SKC
     FM261500 20013G21KT P6SM SKC=



000
FTUS44 KOUN 252327
TAFLAW
TAF
KLAW 252327Z 2600/2624 16010KT P6SM SKC
     FM261500 20013G20KT P6SM SKC=



000
FTUS44 KOUN 252327
TAFSPS
TAF
KSPS 252327Z 2600/2624 17012KT P6SM SKC
     FM261500 20013G21KT P6SM SKC=



000
FTUS44 KOUN 252327
TAFHBR
TAF
KHBR 252327Z 2600/2624 20017G26KT P6SM SKC=



000
FTUS44 KOUN 252327
TAFOUN
TAF
KOUN 252327Z 2600/2624 17011KT P6SM SKC
     FM261500 20014G22KT P6SM SKC=



000
FTUS44 KOUN 252327
TAFGAG
TAF
KGAG 252327Z 2600/2624 19017G28KT P6SM FEW200=



000
FTUS44 KOUN 252327
TAFLAW
TAF
KLAW 252327Z 2600/2624 16010KT P6SM SKC
     FM261500 20013G20KT P6SM SKC=



000
FTUS44 KOUN 252327
TAFPNC
TAF
KPNC 252327Z 2600/2624 17011KT P6SM FEW200
     FM261500 20013G20KT P6SM FEW200=



000
FTUS44 KOUN 252327
TAFWWR
TAF
KWWR 252327Z 2600/2624 19017G28KT P6SM FEW200=



000
FTUS44 KOUN 252327
TAFOKC
TAF
KOKC 252327Z 2600/2624 18011KT P6SM SKC
     FM261500 20015G23KT P6SM SKC=



    US Dept of Commerce
    National Oceanic and Atmospheric Administration
    National Weather Service
    1325 East West Highway
    Silver Spring, MD 20910
    Page Author: NWS Internet Services Team
Disclaimer
Information Quality
Credits
Glossary
Privacy Policy
Freedom of Information Act (FOIA)
About Us
Career Opportunities